createdAt,value
2023-04-20T00:00:17.428Z,88.8
2023-04-20T00:01:17.003Z,88.7
2023-04-20T00:02:17.503Z,88.6
2023-04-20T00:03:17.365Z,88.6
2023-04-20T00:04:17.112Z,88.5
2023-04-20T00:05:16.869Z,88.6
2023-04-20T00:06:17.461Z,88.6
2023-04-20T00:07:17.017Z,88.6
2023-04-20T00:08:16.545Z,88.7
2023-04-20T00:09:17.460Z,88.6
2023-04-20T00:10:17.098Z,88.8
2023-04-20T00:11:16.647Z,89.3
2023-04-20T00:12:16.671Z,89.1
2023-04-20T00:13:17.234Z,89.0
2023-04-20T00:14:16.801Z,89.1
2023-04-20T00:15:17.357Z,89.0
2023-04-20T00:16:16.971Z,88.9
2023-04-20T00:17:16.570Z,89.0
2023-04-20T00:18:17.134Z,89.0
2023-04-20T00:19:17.248Z,89.6
2023-04-20T00:20:16.940Z,90.0
2023-04-20T00:21:17.526Z,90.1
2023-04-20T00:22:17.414Z,90.3
2023-04-20T00:23:17.003Z,90.0
2023-04-20T00:24:16.637Z,89.9
2023-04-20T00:25:17.188Z,89.7
2023-04-20T00:26:16.744Z,89.9
2023-04-20T00:27:17.260Z,90.0
2023-04-20T00:28:16.798Z,90.2
2023-04-20T00:29:17.771Z,90.2
2023-04-20T00:30:17.435Z,90.2
2023-04-20T00:31:17.060Z,89.9
2023-04-20T00:32:17.262Z,89.7
2023-04-20T00:33:16.838Z,89.6
2023-04-20T00:34:17.424Z,89.7
2023-04-20T00:35:16.990Z,89.8
2023-04-20T00:36:16.577Z,89.8
2023-04-20T00:37:17.137Z,89.8
2023-04-20T00:38:16.763Z,89.6
2023-04-20T00:39:17.790Z,89.5
2023-04-20T00:40:17.471Z,89.4
2023-04-20T00:41:17.028Z,89.4
2023-04-20T00:42:17.388Z,89.4
2023-04-20T00:43:16.956Z,89.4
2023-04-20T00:44:17.510Z,89.4
2023-04-20T00:45:17.053Z,89.3
2023-04-20T00:46:16.638Z,89.4
2023-04-20T00:47:17.257Z,89.7
2023-04-20T00:48:16.826Z,90.4
2023-04-20T00:49:17.652Z,90.7
2023-04-20T00:50:17.338Z,90.8
2023-04-20T00:51:16.921Z,90.8
2023-04-20T00:52:17.167Z,90.8
2023-04-20T00:53:16.791Z,90.7
2023-04-20T00:54:17.351Z,90.8
2023-04-20T00:55:16.912Z,91.0
2023-04-20T00:56:17.463Z,90.8
2023-04-20T00:57:17.041Z,90.8
2023-04-20T00:58:16.641Z,90.7
2023-04-20T00:59:17.732Z,90.8
2023-04-20T01:00:17.469Z,90.9
2023-04-20T01:01:17.043Z,90.8
2023-04-20T01:02:17.285Z,90.9
2023-04-20T01:03:17.142Z,91.4
2023-04-20T01:04:17.206Z,91.4
2023-04-20T01:05:16.864Z,91.2
2023-04-20T01:06:17.409Z,91.2
2023-04-20T01:07:16.955Z,91.2
2023-04-20T01:08:17.484Z,91.2
2023-04-20T01:09:17.623Z,91.3
2023-04-20T01:10:17.259Z,91.5
2023-04-20T01:11:16.820Z,91.4
2023-04-20T01:12:16.750Z,91.2
2023-04-20T01:13:17.336Z,91.0
2023-04-20T01:14:16.895Z,91.0
2023-04-20T01:15:17.496Z,91.0
2023-04-20T01:16:17.178Z,90.9
2023-04-20T01:17:16.891Z,90.9
2023-04-20T01:18:17.436Z,90.7
2023-04-20T01:19:17.555Z,90.7
2023-04-20T01:20:17.223Z,90.7
2023-04-20T01:21:16.872Z,90.8
2023-04-20T01:22:16.678Z,90.7
2023-04-20T01:23:17.213Z,90.6
2023-04-20T01:24:16.838Z,90.6
2023-04-20T01:25:17.430Z,90.5
2023-04-20T01:26:16.981Z,90.5
2023-04-20T01:27:16.521Z,90.5
2023-04-20T01:28:17.083Z,90.6
2023-04-20T01:29:17.118Z,90.7
2023-04-20T01:30:16.877Z,90.8
2023-04-20T01:31:17.472Z,90.7
2023-04-20T01:32:17.358Z,90.6
2023-04-20T01:33:16.904Z,90.7
2023-04-20T01:34:17.465Z,90.7
2023-04-20T01:35:17.032Z,90.8
2023-04-20T01:36:16.609Z,91.0
2023-04-20T01:37:17.152Z,90.9
2023-04-20T01:38:16.745Z,91.0
2023-04-20T01:39:17.742Z,90.9
2023-04-20T01:40:17.425Z,90.9
2023-04-20T01:41:16.999Z,91.0
2023-04-20T01:42:16.786Z,91.1
2023-04-20T01:43:17.354Z,91.0
2023-04-20T01:44:16.932Z,91.1
2023-04-20T01:45:17.498Z,91.2
2023-04-20T01:46:17.111Z,91.2
2023-04-20T01:47:16.698Z,91.1
2023-04-20T01:48:17.212Z,91.1
2023-04-20T01:49:17.269Z,91.1
2023-04-20T01:50:16.911Z,91.1
2023-04-20T01:51:17.458Z,91.1
2023-04-20T01:52:17.420Z,91.2
2023-04-20T01:53:16.993Z,91.3
2023-04-20T01:54:16.553Z,91.3
2023-04-20T01:55:20.081Z,91.4
2023-04-20T01:56:16.750Z,91.8
2023-04-20T01:57:17.290Z,92.0
2023-04-20T01:58:16.879Z,92.1
2023-04-20T01:59:17.872Z,92.2
2023-04-20T02:00:16.550Z,92.5
2023-04-20T02:01:17.255Z,92.5
2023-04-20T02:02:17.040Z,92.7
2023-04-20T02:03:17.382Z,92.8
2023-04-20T02:04:17.117Z,92.9
2023-04-20T02:05:16.699Z,92.8
2023-04-20T02:06:17.253Z,92.7
2023-04-20T02:07:16.931Z,93.3
2023-04-20T02:08:17.517Z,93.1
2023-04-20T02:09:17.699Z,93.1
2023-04-20T02:10:17.371Z,93.1
2023-04-20T02:11:16.908Z,93.0
2023-04-20T02:12:16.520Z,93.0
2023-04-20T02:13:17.107Z,92.9
2023-04-20T02:14:16.699Z,92.9
2023-04-20T02:15:17.275Z,92.8
2023-04-20T02:16:16.819Z,92.7
2023-04-20T02:17:17.576Z,92.8
2023-04-20T02:18:17.146Z,92.8
2023-04-20T02:19:17.180Z,92.6
2023-04-20T02:20:16.983Z,92.6
2023-04-20T02:21:16.547Z,92.6
2023-04-20T02:22:16.838Z,92.7
2023-04-20T02:23:17.406Z,92.5
2023-04-20T02:24:16.921Z,92.4
2023-04-20T02:25:17.505Z,92.3
2023-04-20T02:26:17.101Z,92.4
2023-04-20T02:27:16.693Z,91.9
2023-04-20T02:28:17.264Z,91.8
2023-04-20T02:29:17.532Z,91.6
2023-04-20T02:30:17.412Z,91.2
2023-04-20T02:31:17.083Z,91.3
2023-04-20T02:32:16.957Z,91.5
2023-04-20T02:33:17.531Z,91.5
2023-04-20T02:34:17.080Z,91.5
2023-04-20T02:35:16.708Z,91.6
2023-04-20T02:36:17.283Z,91.7
2023-04-20T02:37:16.909Z,91.9
2023-04-20T02:38:17.487Z,92.0
2023-04-20T02:39:17.707Z,92.1
2023-04-20T02:40:17.362Z,92.0
2023-04-20T02:41:16.977Z,92.0
2023-04-20T02:42:17.363Z,92.0
2023-04-20T02:43:16.960Z,92.0
2023-04-20T02:44:17.516Z,92.2
2023-04-20T02:45:17.079Z,92.2
2023-04-20T02:46:16.694Z,92.0
2023-04-20T02:47:17.320Z,92.0
2023-04-20T02:48:16.976Z,92.1
2023-04-20T02:49:17.105Z,92.2
2023-04-20T02:50:16.772Z,92.5
2023-04-20T02:51:17.321Z,92.7
2023-04-20T02:52:17.256Z,92.9
2023-04-20T02:53:16.778Z,92.9
2023-04-20T02:54:17.312Z,92.9
2023-04-20T02:55:16.932Z,92.8
2023-04-20T02:56:17.489Z,92.7
2023-04-20T02:57:17.065Z,92.6
2023-04-20T02:58:16.668Z,92.6
2023-04-20T02:59:17.873Z,92.6
2023-04-20T03:00:16.628Z,93.1
2023-04-20T03:01:17.219Z,93.4
2023-04-20T03:02:17.441Z,93.2
2023-04-20T03:03:17.329Z,93.3
2023-04-20T03:04:17.306Z,93.1
2023-04-20T03:05:16.979Z,93.2
2023-04-20T03:06:16.525Z,93.5
2023-04-20T03:07:17.159Z,93.4
2023-04-20T03:08:16.680Z,93.3
2023-04-20T03:09:17.779Z,93.3
2023-04-20T03:10:17.460Z,93.0
2023-04-20T03:11:17.045Z,92.9
2023-04-20T03:12:17.065Z,92.9
2023-04-20T03:13:16.647Z,93.1
2023-04-20T03:14:17.209Z,93.1
2023-04-20T03:15:16.811Z,93.2
2023-04-20T03:16:17.485Z,93.5
2023-04-20T03:17:17.078Z,93.4
2023-04-20T03:18:16.640Z,93.4
2023-04-20T03:19:17.797Z,93.4
2023-04-20T03:20:17.531Z,93.5
2023-04-20T03:21:17.060Z,93.6
2023-04-20T03:22:17.291Z,93.6
2023-04-20T03:23:16.832Z,93.5
2023-04-20T03:24:17.436Z,93.5
2023-04-20T03:25:17.021Z,93.4
2023-04-20T03:26:16.607Z,93.5
2023-04-20T03:27:17.159Z,93.8
2023-04-20T03:28:16.792Z,93.9
2023-04-20T03:29:17.927Z,94.1
2023-04-20T03:30:16.813Z,94.3
2023-04-20T03:31:17.430Z,94.4
2023-04-20T03:32:17.095Z,94.4
2023-04-20T03:33:16.632Z,94.1
2023-04-20T03:34:17.190Z,93.9
2023-04-20T03:35:16.747Z,93.8
2023-04-20T03:36:17.309Z,93.7
2023-04-20T03:37:16.926Z,93.5
2023-04-20T03:38:17.486Z,93.5
2023-04-20T03:39:17.717Z,93.5
2023-04-20T03:40:17.541Z,93.5
2023-04-20T03:41:17.170Z,93.5
2023-04-20T03:42:16.666Z,93.5
2023-04-20T03:43:17.222Z,93.5
2023-04-20T03:44:16.820Z,93.3
2023-04-20T03:45:17.425Z,93.3
2023-04-20T03:46:17.224Z,93.3
2023-04-20T03:47:16.868Z,93.4
2023-04-20T03:48:17.424Z,93.5
2023-04-20T03:49:17.473Z,93.6
2023-04-20T03:50:17.251Z,93.8
2023-04-20T03:51:16.828Z,94.1
2023-04-20T03:52:17.546Z,94.2
2023-04-20T03:53:17.129Z,94.0
2023-04-20T03:54:16.670Z,94.0
2023-04-20T03:55:17.250Z,93.9
2023-04-20T03:56:16.842Z,93.9
2023-04-20T03:57:17.460Z,93.9
2023-04-20T03:58:17.010Z,94.0
2023-04-20T03:59:17.041Z,93.9
2023-04-20T04:00:16.688Z,93.9
2023-04-20T04:01:17.230Z,93.9
2023-04-20T04:02:17.334Z,93.9
2023-04-20T04:03:17.526Z,94.0
2023-04-20T04:04:17.512Z,94.4
2023-04-20T04:05:17.596Z,94.3
2023-04-20T04:06:17.234Z,94.2
2023-04-20T04:07:16.906Z,94.0
2023-04-20T04:08:17.454Z,94.1
2023-04-20T04:09:17.476Z,94.1
2023-04-20T04:10:17.178Z,94.0
2023-04-20T04:11:16.761Z,94.0
2023-04-20T04:12:17.503Z,93.9
2023-04-20T04:13:17.075Z,93.8
2023-04-20T04:14:16.624Z,93.8
2023-04-20T04:15:17.152Z,94.0
2023-04-20T04:16:16.719Z,94.1
2023-04-20T04:17:17.380Z,94.2
2023-04-20T04:18:16.958Z,94.2
2023-04-20T04:19:17.112Z,94.1
2023-04-20T04:20:16.890Z,94.0
2023-04-20T04:21:16.513Z,94.0
2023-04-20T04:22:16.886Z,93.9
2023-04-20T04:23:17.501Z,94.0
2023-04-20T04:24:17.066Z,93.9
2023-04-20T04:25:16.614Z,93.8
2023-04-20T04:26:17.139Z,93.8
2023-04-20T04:27:16.737Z,93.9
2023-04-20T04:28:17.307Z,94.2
2023-04-20T04:29:17.492Z,94.1
2023-04-20T04:30:17.165Z,94.0
2023-04-20T04:31:16.786Z,94.0
2023-04-20T04:32:16.658Z,94.1
2023-04-20T04:33:17.239Z,94.1
2023-04-20T04:34:16.791Z,94.2
2023-04-20T04:35:17.434Z,94.0
2023-04-20T04:36:17.037Z,94.1
2023-04-20T04:37:16.615Z,94.0
2023-04-20T04:38:17.191Z,93.9
2023-04-20T04:39:17.294Z,94.0
2023-04-20T04:40:17.038Z,94.0
2023-04-20T04:41:16.582Z,93.9
2023-04-20T04:42:17.490Z,94.0
2023-04-20T04:43:17.065Z,93.8
2023-04-20T04:44:16.644Z,93.7
2023-04-20T04:45:17.206Z,93.7
2023-04-20T04:46:16.836Z,93.7
2023-04-20T04:47:17.397Z,93.6
2023-04-20T04:48:16.963Z,93.5
2023-04-20T04:49:17.305Z,93.5
2023-04-20T04:50:17.218Z,93.4
2023-04-20T04:51:16.740Z,93.3
2023-04-20T04:52:16.713Z,93.3
2023-04-20T04:53:17.256Z,93.3
2023-04-20T04:54:16.856Z,93.2
2023-04-20T04:55:17.409Z,93.0
2023-04-20T04:56:16.934Z,93.0
2023-04-20T04:57:17.501Z,93.0
2023-04-20T04:58:17.112Z,92.9
2023-04-20T04:59:17.286Z,92.9
2023-04-20T05:00:16.957Z,92.8
2023-04-20T05:01:17.550Z,92.6
2023-04-20T05:02:17.010Z,92.6
2023-04-20T05:03:17.148Z,92.5
2023-04-20T05:04:16.910Z,92.6
2023-04-20T05:05:17.489Z,92.6
2023-04-20T05:06:17.014Z,92.6
2023-04-20T05:07:16.571Z,92.6
2023-04-20T05:08:17.216Z,92.5
2023-04-20T05:09:17.465Z,92.4
2023-04-20T05:10:17.267Z,92.1
2023-04-20T05:11:16.870Z,92.3
2023-04-20T05:12:16.628Z,92.3
2023-04-20T05:13:17.312Z,92.3
2023-04-20T05:14:16.869Z,92.0
2023-04-20T05:15:17.405Z,92.0
2023-04-20T05:16:17.100Z,92.0
2023-04-20T05:17:16.694Z,92.0
2023-04-20T05:18:17.249Z,91.8
2023-04-20T05:19:17.410Z,91.7
2023-04-20T05:20:17.106Z,91.0
2023-04-20T05:21:16.648Z,91.2
2023-04-20T05:22:17.360Z,91.0
2023-04-20T05:23:17.204Z,91.0
2023-04-20T05:24:16.884Z,90.9
2023-04-20T05:25:17.427Z,90.8
2023-04-20T05:26:16.951Z,90.8
2023-04-20T05:27:17.526Z,90.5
2023-04-20T05:28:17.120Z,90.4
2023-04-20T05:29:17.231Z,90.3
2023-04-20T05:30:22.195Z,90.0
2023-04-20T05:31:16.931Z,89.5
2023-04-20T05:32:17.085Z,88.7
2023-04-20T05:33:16.612Z,89.2
2023-04-20T05:34:17.237Z,89.2
2023-04-20T05:35:16.816Z,89.2
2023-04-20T05:36:17.380Z,89.2
2023-04-20T05:37:16.954Z,89.0
2023-04-20T05:38:17.512Z,89.1
2023-04-20T05:39:17.856Z,89.1
2023-04-20T05:40:16.718Z,88.9
2023-04-20T05:41:17.303Z,88.7
2023-04-20T05:42:16.526Z,87.0
2023-04-20T05:43:17.115Z,87.0
2023-04-20T05:44:16.702Z,87.5
2023-04-20T05:45:17.303Z,87.5
2023-04-20T05:46:16.940Z,87.0
2023-04-20T05:47:16.545Z,85.5
2023-04-20T05:48:17.112Z,85.6
2023-04-20T05:49:17.157Z,86.5
2023-04-20T05:50:16.924Z,86.4
2023-04-20T05:51:17.521Z,85.4
2023-04-20T05:52:16.596Z,85.3
2023-04-20T05:53:17.179Z,84.6
2023-04-20T05:54:16.739Z,85.2
2023-04-20T05:55:21.581Z,85.7
2023-04-20T05:56:16.781Z,85.6
2023-04-20T05:57:17.472Z,85.1
2023-04-20T05:58:17.035Z,84.7
2023-04-20T05:59:17.096Z,84.9
2023-04-20T06:00:16.877Z,84.2
2023-04-20T06:01:17.450Z,83.1
2023-04-20T06:02:16.937Z,83.3
2023-04-20T06:03:16.975Z,83.6
2023-04-20T06:04:17.528Z,82.1
2023-04-20T06:05:17.587Z,82.1
2023-04-20T06:06:17.256Z,82.7
2023-04-20T06:07:16.839Z,82.7
2023-04-20T06:08:17.431Z,81.3
2023-04-20T06:09:17.497Z,82.0
2023-04-20T06:10:17.259Z,80.9
2023-04-20T06:11:16.791Z,81.5
2023-04-20T06:12:17.554Z,81.8
2023-04-20T06:13:17.082Z,82.2
2023-04-20T06:14:17.381Z,82.1
2023-04-20T06:15:16.967Z,81.5
2023-04-20T06:16:17.615Z,81.0
2023-04-20T06:17:17.217Z,80.6
2023-04-20T06:18:16.793Z,80.1
2023-04-20T06:19:18.046Z,80.6
2023-04-20T06:20:16.753Z,80.2
2023-04-20T06:21:17.367Z,79.5
2023-04-20T06:22:16.669Z,79.2
2023-04-20T06:23:17.261Z,79.0
2023-04-20T06:24:16.807Z,79.8
2023-04-20T06:25:17.411Z,80.6
2023-04-20T06:26:16.991Z,79.8
2023-04-20T06:27:16.557Z,79.1
2023-04-20T06:28:17.169Z,78.1
2023-04-20T06:29:17.308Z,78.7
2023-04-20T06:30:17.029Z,78.2
2023-04-20T06:31:16.669Z,77.8
2023-04-20T06:32:17.411Z,77.2
2023-04-20T06:33:16.972Z,77.5
2023-04-20T06:34:16.562Z,77.7
2023-04-20T06:35:17.102Z,76.7
2023-04-20T06:36:16.646Z,76.7
2023-04-20T06:37:17.250Z,77.1
2023-04-20T06:38:16.834Z,76.0
2023-04-20T06:39:17.895Z,75.7
2023-04-20T06:40:16.780Z,73.2
2023-04-20T06:41:17.406Z,73.0
2023-04-20T06:42:17.156Z,73.5
2023-04-20T06:43:16.766Z,74.3
2023-04-20T06:44:17.362Z,73.1
2023-04-20T06:45:16.940Z,73.2
2023-04-20T06:46:17.597Z,71.8
2023-04-20T06:47:17.188Z,72.5
2023-04-20T06:48:32.512Z,71.6
2023-04-20T06:49:17.996Z,71.3
2023-04-20T06:50:16.744Z,69.5
2023-04-20T06:51:17.325Z,69.9
2023-04-20T06:52:17.553Z,70.4
2023-04-20T06:53:17.145Z,70.5
2023-04-20T06:54:16.811Z,69.5
2023-04-20T06:55:17.424Z,69.3
2023-04-20T06:56:16.996Z,69.7
2023-04-20T06:57:16.549Z,70.2
2023-04-20T06:58:17.088Z,71.1
2023-04-20T06:59:17.183Z,70.9
2023-04-20T07:00:16.898Z,71.5
2023-04-20T07:01:17.638Z,71.3
2023-04-20T07:02:17.589Z,71.0
2023-04-20T07:03:17.591Z,70.5
2023-04-20T07:04:17.405Z,70.7
2023-04-20T07:05:17.020Z,70.7
2023-04-20T07:06:16.627Z,68.7
2023-04-20T07:07:17.216Z,68.2
2023-04-20T07:08:16.788Z,68.5
2023-04-20T07:09:17.870Z,67.3
2023-04-20T07:10:16.657Z,67.4
2023-04-20T07:11:17.266Z,67.1
2023-04-20T07:12:16.851Z,67.0
2023-04-20T07:13:17.470Z,70.2
2023-04-20T07:14:17.021Z,69.7
2023-04-20T07:15:16.628Z,69.4
2023-04-20T07:16:17.424Z,67.6
2023-04-20T07:17:17.058Z,66.7
2023-04-20T07:18:16.620Z,65.5
2023-04-20T07:19:17.611Z,64.6
2023-04-20T07:20:17.257Z,65.8
2023-04-20T07:21:16.802Z,64.6
2023-04-20T07:22:17.022Z,63.2
2023-04-20T07:23:16.578Z,63.0
2023-04-20T07:24:17.169Z,62.1
2023-04-20T07:25:16.747Z,62.4
2023-04-20T07:26:17.321Z,64.7
2023-04-20T07:27:16.881Z,65.6
2023-04-20T07:28:17.476Z,65.0
2023-04-20T07:29:17.699Z,65.6
2023-04-20T07:30:17.400Z,67.0
2023-04-20T07:31:17.016Z,66.0
2023-04-20T07:32:16.698Z,65.2
2023-04-20T07:33:17.262Z,66.7
2023-04-20T07:34:17.356Z,65.3
2023-04-20T07:35:17.194Z,65.7
2023-04-20T07:36:16.782Z,65.2
2023-04-20T07:37:17.346Z,64.7
2023-04-20T07:38:16.922Z,64.7
2023-04-20T07:39:18.069Z,64.2
2023-04-20T07:40:16.736Z,64.1
2023-04-20T07:41:17.353Z,64.3
2023-04-20T07:42:17.244Z,64.0
2023-04-20T07:43:16.783Z,62.4
2023-04-20T07:44:17.330Z,62.3
2023-04-20T07:45:16.871Z,60.7
2023-04-20T07:46:17.679Z,60.7
2023-04-20T07:47:17.410Z,60.0
2023-04-20T07:48:16.972Z,60.0
2023-04-20T07:49:17.038Z,59.3
2023-04-20T07:50:16.754Z,60.0
2023-04-20T07:51:17.344Z,60.1
2023-04-20T07:52:17.820Z,60.7
2023-04-20T07:53:17.346Z,60.5
2023-04-20T07:54:16.888Z,61.7
2023-04-20T07:55:17.493Z,62.2
2023-04-20T07:56:17.092Z,61.0
2023-04-20T07:57:16.882Z,60.6
2023-04-20T07:58:17.598Z,59.8
2023-04-20T07:59:17.574Z,63.0
2023-04-20T08:00:17.260Z,63.8
2023-04-20T08:01:16.820Z,62.9
2023-04-20T08:02:17.456Z,60.1
2023-04-20T08:03:17.429Z,59.7
2023-04-20T08:04:17.783Z,59.3
2023-04-20T08:05:17.906Z,58.0
2023-04-20T08:06:16.664Z,60.3
2023-04-20T08:07:17.247Z,60.5
2023-04-20T08:08:16.790Z,60.8
2023-04-20T08:09:17.697Z,62.3
2023-04-20T08:10:17.382Z,62.9
2023-04-20T08:11:16.944Z,60.7
2023-04-20T08:12:16.845Z,61.0
2023-04-20T08:13:17.404Z,59.4
2023-04-20T08:14:17.486Z,59.1
2023-04-20T08:15:17.158Z,59.9
2023-04-20T08:16:16.878Z,61.1
2023-04-20T08:17:17.475Z,60.4
2023-04-20T08:18:17.096Z,60.0
2023-04-20T08:19:16.687Z,59.9
2023-04-20T08:20:17.241Z,60.9
2023-04-20T08:21:16.763Z,59.6
2023-04-20T08:22:16.898Z,60.7
2023-04-20T08:23:17.929Z,60.2
2023-04-20T08:24:17.915Z,59.0
2023-04-20T08:25:16.698Z,59.0
2023-04-20T08:26:17.246Z,60.0
2023-04-20T08:27:16.795Z,60.4
2023-04-20T08:28:33.231Z,61.0
2023-04-20T08:29:17.472Z,59.2
2023-04-20T08:30:17.043Z,59.3
2023-04-20T08:31:16.692Z,58.4
2023-04-20T08:32:16.688Z,58.6
2023-04-20T08:33:17.346Z,60.6
2023-04-20T08:34:17.037Z,61.9
2023-04-20T08:35:16.725Z,61.9
2023-04-20T08:36:17.326Z,61.7
2023-04-20T08:37:16.911Z,61.8
2023-04-20T08:38:27.083Z,63.2
2023-04-20T08:39:17.386Z,61.8
2023-04-20T08:40:16.939Z,61.9
2023-04-20T08:41:17.511Z,61.4
2023-04-20T08:42:17.514Z,61.4
2023-04-20T08:43:17.085Z,61.4
2023-04-20T08:44:17.190Z,60.1
2023-04-20T08:45:16.860Z,61.4
2023-04-20T08:46:17.469Z,60.6
2023-04-20T08:47:17.066Z,59.0
2023-04-20T08:48:16.626Z,60.0
2023-04-20T08:49:17.205Z,60.8
2023-04-20T08:50:16.748Z,61.4
2023-04-20T08:51:17.296Z,62.0
2023-04-20T08:52:17.456Z,61.6
2023-04-20T08:53:17.032Z,61.7
2023-04-20T08:54:17.442Z,61.1
2023-04-20T08:55:17.075Z,62.6
2023-04-20T08:56:16.731Z,62.3
2023-04-20T08:57:17.293Z,63.6
2023-04-20T08:58:16.856Z,65.3
2023-04-20T08:59:17.401Z,64.7
2023-04-20T09:00:16.959Z,63.9
2023-04-20T09:01:25.535Z,64.6
2023-04-20T09:02:16.965Z,63.9
2023-04-20T09:03:17.071Z,62.7
2023-04-20T09:04:18.487Z,63.1
2023-04-20T09:05:16.658Z,62.0
2023-04-20T09:06:17.243Z,61.5
2023-04-20T09:07:16.821Z,63.1
2023-04-20T09:08:17.365Z,62.5
2023-04-20T09:09:16.916Z,62.1
2023-04-20T09:10:17.474Z,63.3
2023-04-20T09:11:17.023Z,62.9
2023-04-20T09:12:16.721Z,62.9
2023-04-20T09:13:17.284Z,62.5
2023-04-20T09:14:17.630Z,62.3
2023-04-20T09:15:17.308Z,63.0
2023-04-20T09:16:16.932Z,63.2
2023-04-20T09:17:17.567Z,63.8
2023-04-20T09:18:17.103Z,63.9
2023-04-20T09:19:16.677Z,63.7
2023-04-20T09:20:17.229Z,63.7
2023-04-20T09:21:16.824Z,63.3
2023-04-20T09:22:17.394Z,63.5
2023-04-20T09:23:16.958Z,66.4
2023-04-20T09:24:17.046Z,66.0
2023-04-20T09:25:16.854Z,66.5
2023-04-20T09:26:17.415Z,66.1
2023-04-20T09:27:17.033Z,66.4
2023-04-20T09:28:16.666Z,66.6
2023-04-20T09:29:17.210Z,66.9
2023-04-20T09:30:16.753Z,66.5
2023-04-20T09:31:17.357Z,66.5
2023-04-20T09:32:17.503Z,66.6
2023-04-20T09:33:17.075Z,67.5
2023-04-20T09:34:17.072Z,67.2
2023-04-20T09:35:16.806Z,67.3
2023-04-20T09:36:17.414Z,68.4
2023-04-20T09:37:16.963Z,68.3
2023-04-20T09:38:16.561Z,68.4
2023-04-20T09:39:17.124Z,67.5
2023-04-20T09:40:16.720Z,67.6
2023-04-20T09:41:17.232Z,67.5
2023-04-20T09:42:17.096Z,67.7
2023-04-20T09:43:16.633Z,69.1
2023-04-20T09:44:17.842Z,68.8
2023-04-20T09:45:16.598Z,68.1
2023-04-20T09:46:17.243Z,68.2
2023-04-20T09:47:16.863Z,68.7
2023-04-20T09:48:17.420Z,68.6
2023-04-20T09:49:16.973Z,67.8
2023-04-20T09:50:27.073Z,66.7
2023-04-20T09:51:17.401Z,66.9
2023-04-20T09:52:16.778Z,66.8
2023-04-20T09:53:17.341Z,67.7
2023-04-20T09:54:17.503Z,67.9
2023-04-20T09:55:17.216Z,67.6
2023-04-20T09:56:16.782Z,67.5
2023-04-20T09:57:17.398Z,67.1
2023-04-20T09:58:16.951Z,67.0
2023-04-20T09:59:17.503Z,65.9
2023-04-20T10:00:17.108Z,64.9
2023-04-20T10:01:16.755Z,65.2
2023-04-20T10:02:17.337Z,66.0
2023-04-20T10:03:17.232Z,65.9
2023-04-20T10:04:18.043Z,66.0
2023-04-20T10:05:16.854Z,66.1
2023-04-20T10:06:17.395Z,66.8
2023-04-20T10:07:16.943Z,67.1
2023-04-20T10:08:17.492Z,67.7
2023-04-20T10:09:17.022Z,67.5
2023-04-20T10:10:16.601Z,66.7
2023-04-20T10:11:17.179Z,66.8
2023-04-20T10:12:17.042Z,67.4
2023-04-20T10:13:16.617Z,68.5
2023-04-20T10:14:17.828Z,68.9
2023-04-20T10:15:16.607Z,68.8
2023-04-20T10:16:17.179Z,68.2
2023-04-20T10:17:16.980Z,68.1
2023-04-20T10:18:16.819Z,67.9
2023-04-20T10:19:17.510Z,67.9
2023-04-20T10:20:17.061Z,69.4
2023-04-20T10:21:16.664Z,69.8
2023-04-20T10:22:16.701Z,69.6
2023-04-20T10:23:17.250Z,69.4
2023-04-20T10:24:20.428Z,69.3
2023-04-20T10:25:17.079Z,68.6
2023-04-20T10:26:16.642Z,68.4
2023-04-20T10:27:17.222Z,68.0
2023-04-20T10:28:16.762Z,67.6
2023-04-20T10:29:17.312Z,67.6
2023-04-20T10:30:16.881Z,68.2
2023-04-20T10:31:17.610Z,68.2
2023-04-20T10:32:17.118Z,67.9
2023-04-20T10:33:16.775Z,67.8
2023-04-20T10:34:18.030Z,68.1
2023-04-20T10:35:16.710Z,67.7
2023-04-20T10:36:17.254Z,68.8
2023-04-20T10:37:16.814Z,69.2
2023-04-20T10:38:17.409Z,69.8
2023-04-20T10:39:19.931Z,70.0
2023-04-20T10:40:16.552Z,70.1
2023-04-20T10:41:17.104Z,70.4
2023-04-20T10:42:18.462Z,71.7
2023-04-20T10:43:16.995Z,71.2
2023-04-20T10:44:16.965Z,71.0
2023-04-20T10:45:16.618Z,70.7
2023-04-20T10:46:17.265Z,71.6
2023-04-20T10:47:16.833Z,71.8
2023-04-20T10:48:18.637Z,71.7
2023-04-20T10:49:17.623Z,71.6
2023-04-20T10:50:17.298Z,72.7
2023-04-20T10:51:16.835Z,72.6
2023-04-20T10:52:17.197Z,72.6
2023-04-20T10:53:16.738Z,72.4
2023-04-20T10:54:18.685Z,72.5
2023-04-20T10:55:17.218Z,73.0
2023-04-20T10:56:16.806Z,72.7
2023-04-20T10:57:17.385Z,72.6
2023-04-20T10:58:16.952Z,71.9
2023-04-20T10:59:17.970Z,71.6
2023-04-20T11:00:16.836Z,72.0
2023-04-20T11:01:17.440Z,72.6
2023-04-20T11:02:17.546Z,72.3
2023-04-20T11:03:17.337Z,72.2
2023-04-20T11:04:19.550Z,72.3
2023-04-20T11:05:17.324Z,72.4
2023-04-20T11:06:16.963Z,72.4
2023-04-20T11:07:17.532Z,72.1
2023-04-20T11:08:17.103Z,72.0
2023-04-20T11:09:17.210Z,72.6
2023-04-20T11:10:17.129Z,72.7
2023-04-20T11:11:16.701Z,72.6
2023-04-20T11:12:17.184Z,72.3
2023-04-20T11:13:16.742Z,72.2
2023-04-20T11:14:17.337Z,72.3
2023-04-20T11:15:16.942Z,71.5
2023-04-20T11:16:17.576Z,71.3
2023-04-20T11:17:17.339Z,71.3
2023-04-20T11:18:17.072Z,72.1
2023-04-20T11:19:17.064Z,71.9
2023-04-20T11:20:16.989Z,72.0
2023-04-20T11:21:16.763Z,72.1
2023-04-20T11:22:17.983Z,71.9
2023-04-20T11:23:16.605Z,72.1
2023-04-20T11:24:17.182Z,72.2
2023-04-20T11:25:16.801Z,72.4
2023-04-20T11:26:17.350Z,72.7
2023-04-20T11:27:16.954Z,72.9
2023-04-20T11:28:17.510Z,73.0
2023-04-20T11:29:17.781Z,73.2
2023-04-20T11:30:17.456Z,73.2
2023-04-20T11:31:17.187Z,72.5
2023-04-20T11:32:17.301Z,72.4
2023-04-20T11:33:17.258Z,72.1
2023-04-20T11:34:16.868Z,71.1
2023-04-20T11:35:17.476Z,71.9
2023-04-20T11:36:17.031Z,71.7
2023-04-20T11:37:16.592Z,70.8
2023-04-20T11:38:17.133Z,70.6
2023-04-20T11:39:17.224Z,70.8
2023-04-20T11:41:17.512Z,70.8
2023-04-20T11:42:17.220Z,70.3
2023-04-20T11:43:16.769Z,70.4
2023-04-20T11:44:17.384Z,70.2
2023-04-20T11:45:16.942Z,70.1
2023-04-20T11:46:17.756Z,70.8
2023-04-20T11:47:17.356Z,70.5
2023-04-20T11:48:16.900Z,72.0
2023-04-20T11:49:17.922Z,71.6
2023-04-20T11:50:16.760Z,71.5
2023-04-20T11:51:17.327Z,71.4
2023-04-20T11:52:17.280Z,72.1
2023-04-20T11:53:16.857Z,72.1
2023-04-20T11:54:17.435Z,72.1
2023-04-20T11:55:17.011Z,71.9
2023-04-20T11:56:16.561Z,71.6
2023-04-20T11:57:17.130Z,71.7
2023-04-20T11:58:16.690Z,71.5
2023-04-20T11:59:17.928Z,71.2
2023-04-20T12:00:16.653Z,70.9
2023-04-20T12:01:17.241Z,70.8
2023-04-20T12:02:17.463Z,70.8
2023-04-20T12:03:17.540Z,70.8
2023-04-20T12:04:18.349Z,71.4
2023-04-20T12:05:17.331Z,71.1
2023-04-20T12:06:16.905Z,71.0
2023-04-20T12:07:17.492Z,71.2
2023-04-20T12:08:17.017Z,71.3
2023-04-20T12:09:17.166Z,71.6
2023-04-20T12:10:16.956Z,72.5
2023-04-20T12:11:16.527Z,72.7
2023-04-20T12:12:17.299Z,72.2
2023-04-20T12:13:16.898Z,72.7
2023-04-20T12:14:17.436Z,73.6
2023-04-20T12:15:16.992Z,73.5
2023-04-20T12:16:16.657Z,73.8
2023-04-20T12:17:17.207Z,74.0
2023-04-20T12:18:16.745Z,73.7
2023-04-20T12:19:17.984Z,73.7
2023-04-20T12:20:16.826Z,73.7
2023-04-20T12:21:17.364Z,73.6
2023-04-20T12:22:17.196Z,73.3
2023-04-20T12:23:16.744Z,74.6
2023-04-20T12:24:17.346Z,75.2
2023-04-20T12:25:17.011Z,75.1
2023-04-20T12:26:16.564Z,75.3
2023-04-20T12:27:17.109Z,75.3
2023-04-20T12:28:16.668Z,75.6
2023-04-20T12:29:17.844Z,75.6
2023-04-20T12:30:16.528Z,75.7
2023-04-20T12:31:17.141Z,75.6
2023-04-20T12:32:17.134Z,75.5
2023-04-20T12:33:16.730Z,75.7
2023-04-20T12:34:17.959Z,75.4
2023-04-20T12:35:16.862Z,75.5
2023-04-20T12:36:17.404Z,75.4
2023-04-20T12:37:16.932Z,76.1
2023-04-20T12:38:17.552Z,76.0
2023-04-20T12:39:17.122Z,76.0
2023-04-20T12:40:16.685Z,76.1
2023-04-20T12:41:17.216Z,75.9
2023-04-20T12:42:17.150Z,75.8
2023-04-20T12:43:16.774Z,75.9
2023-04-20T12:44:17.916Z,76.3
2023-04-20T12:45:16.595Z,76.6
2023-04-20T12:46:17.225Z,76.6
2023-04-20T12:47:16.824Z,76.3
2023-04-20T12:48:17.486Z,76.3
2023-04-20T12:49:17.722Z,76.3
2023-04-20T12:50:17.463Z,76.4
2023-04-20T12:51:17.011Z,76.1
2023-04-20T12:52:16.959Z,76.1
2023-04-20T12:53:17.491Z,76.6
2023-04-20T12:54:17.468Z,76.7
2023-04-20T12:55:17.323Z,76.7
2023-04-20T12:56:16.885Z,76.4
2023-04-20T12:57:17.437Z,76.6
2023-04-20T12:58:16.995Z,76.2
2023-04-20T12:59:16.548Z,76.3
2023-04-20T13:00:17.095Z,76.3
2023-04-20T13:01:16.740Z,76.7
2023-04-20T13:02:16.702Z,76.7
2023-04-20T13:03:17.936Z,76.8
2023-04-20T13:04:17.684Z,76.4
2023-04-20T13:05:16.623Z,76.3
2023-04-20T13:06:17.190Z,76.5
2023-04-20T13:07:16.750Z,76.3
2023-04-20T13:08:17.408Z,76.6
2023-04-20T13:09:17.049Z,76.7
2023-04-20T13:10:16.685Z,76.7
2023-04-20T13:11:17.266Z,76.3
2023-04-20T13:12:17.095Z,76.4
2023-04-20T13:13:16.636Z,76.5
2023-04-20T13:14:17.841Z,76.7
2023-04-20T13:15:32.233Z,76.7
2023-04-20T13:16:17.176Z,76.6
2023-04-20T13:17:16.737Z,76.6
2023-04-20T13:18:17.309Z,77.0
2023-04-20T13:19:16.976Z,77.1